sensor_id;sensor_type;location;lat;lon;timestamp;P1;durP1;ratioP1;P2;durP2;ratioP2
2522;SDS011;1272;53.332;9.860;2023-04-25T00:00:28;7.00;;;6.33;;
2522;SDS011;1272;53.332;9.860;2023-04-25T00:02:53;11.17;;;6.27;;
2522;SDS011;1272;53.332;9.860;2023-04-25T00:05:21;6.20;;;5.60;;
2522;SDS011;1272;53.332;9.860;2023-04-25T00:07:48;8.70;;;6.83;;
2522;SDS011;1272;53.332;9.860;2023-04-25T00:10:14;7.13;;;6.10;;
2522;SDS011;1272;53.332;9.860;2023-04-25T00:12:40;9.53;;;7.50;;
2522;SDS011;1272;53.332;9.860;2023-04-25T00:15:06;8.70;;;7.60;;
2522;SDS011;1272;53.332;9.860;2023-04-25T00:17:32;8.20;;;6.93;;
2522;SDS011;1272;53.332;9.860;2023-04-25T00:20:00;8.10;;;7.37;;
2522;SDS011;1272;53.332;9.860;2023-04-25T00:22:26;10.30;;;7.17;;
2522;SDS011;1272;53.332;9.860;2023-04-25T00:24:51;6.90;;;5.57;;
2522;SDS011;1272;53.332;9.860;2023-04-25T00:27:18;5.13;;;4.73;;
2522;SDS011;1272;53.332;9.860;2023-04-25T00:29:44;6.33;;;5.70;;
2522;SDS011;1272;53.332;9.860;2023-04-25T00:32:09;7.70;;;4.60;;
2522;SDS011;1272;53.332;9.860;2023-04-25T00:34:35;6.40;;;4.40;;
2522;SDS011;1272;53.332;9.860;2023-04-25T00:37:01;12.63;;;4.73;;
2522;SDS011;1272;53.332;9.860;2023-04-25T00:39:27;8.50;;;4.67;;
2522;SDS011;1272;53.332;9.860;2023-04-25T00:41:53;14.50;;;5.00;;
2522;SDS011;1272;53.332;9.860;2023-04-25T00:44:20;10.93;;;4.63;;
2522;SDS011;1272;53.332;9.860;2023-04-25T00:46:47;11.53;;;5.30;;
2522;SDS011;1272;53.332;9.860;2023-04-25T00:49:14;21.03;;;5.43;;
2522;SDS011;1272;53.332;9.860;2023-04-25T00:51:41;12.10;;;5.23;;
2522;SDS011;1272;53.332;9.860;2023-04-25T00:54:09;13.97;;;5.57;;
2522;SDS011;1272;53.332;9.860;2023-04-25T00:56:35;18.50;;;6.43;;
2522;SDS011;1272;53.332;9.860;2023-04-25T00:59:01;11.10;;;4.63;;
2522;SDS011;1272;53.332;9.860;2023-04-25T01:01:27;15.23;;;5.57;;
2522;SDS011;1272;53.332;9.860;2023-04-25T01:03:53;12.90;;;4.33;;
2522;SDS011;1272;53.332;9.860;2023-04-25T01:06:19;8.73;;;4.73;;
2522;SDS011;1272;53.332;9.860;2023-04-25T01:08:44;16.47;;;4.70;;
2522;SDS011;1272;53.332;9.860;2023-04-25T01:11:10;11.83;;;4.77;;
2522;SDS011;1272;53.332;9.860;2023-04-25T01:13:36;10.87;;;4.43;;
2522;SDS011;1272;53.332;9.860;2023-04-25T01:16:02;15.40;;;4.90;;
2522;SDS011;1272;53.332;9.860;2023-04-25T01:18:28;15.80;;;5.13;;
2522;SDS011;1272;53.332;9.860;2023-04-25T01:20:54;11.70;;;4.73;;
2522;SDS011;1272;53.332;9.860;2023-04-25T01:23:20;20.83;;;5.00;;
2522;SDS011;1272;53.332;9.860;2023-04-25T01:25:48;18.83;;;5.60;;
2522;SDS011;1272;53.332;9.860;2023-04-25T01:28:14;17.30;;;4.80;;
2522;SDS011;1272;53.332;9.860;2023-04-25T01:30:52;13.83;;;4.50;;
2522;SDS011;1272;53.332;9.860;2023-04-25T01:33:22;14.40;;;4.60;;
2522;SDS011;1272;53.332;9.860;2023-04-25T01:35:48;14.47;;;4.63;;
2522;SDS011;1272;53.332;9.860;2023-04-25T01:38:14;17.50;;;4.40;;
2522;SDS011;1272;53.332;9.860;2023-04-25T01:40:40;23.50;;;6.30;;
2522;SDS011;1272;53.332;9.860;2023-04-25T01:43:06;25.70;;;7.17;;
2522;SDS011;1272;53.332;9.860;2023-04-25T01:45:36;20.60;;;6.07;;
2522;SDS011;1272;53.332;9.860;2023-04-25T01:48:05;17.40;;;5.87;;
2522;SDS011;1272;53.332;9.860;2023-04-25T01:50:30;21.43;;;5.10;;
2522;SDS011;1272;53.332;9.860;2023-04-25T01:52:56;29.27;;;6.03;;
2522;SDS011;1272;53.332;9.860;2023-04-25T01:55:22;16.17;;;5.30;;
2522;SDS011;1272;53.332;9.860;2023-04-25T01:57:48;13.53;;;4.80;;
2522;SDS011;1272;53.332;9.860;2023-04-25T02:00:13;20.70;;;5.30;;
2522;SDS011;1272;53.332;9.860;2023-04-25T02:02:40;16.77;;;4.87;;
2522;SDS011;1272;53.332;9.860;2023-04-25T02:05:06;15.90;;;5.20;;
2522;SDS011;1272;53.332;9.860;2023-04-25T02:07:32;16.80;;;4.90;;
2522;SDS011;1272;53.332;9.860;2023-04-25T02:13:19;24.93;;;6.10;;
2522;SDS011;1272;53.332;9.860;2023-04-25T02:15:45;14.13;;;4.53;;
2522;SDS011;1272;53.332;9.860;2023-04-25T02:18:11;22.67;;;4.57;;
2522;SDS011;1272;53.332;9.860;2023-04-25T02:20:36;25.37;;;5.50;;
2522;SDS011;1272;53.332;9.860;2023-04-25T02:23:02;19.20;;;5.87;;
2522;SDS011;1272;53.332;9.860;2023-04-25T02:25:28;17.87;;;4.70;;
2522;SDS011;1272;53.332;9.860;2023-04-25T02:27:54;15.77;;;5.20;;
2522;SDS011;1272;53.332;9.860;2023-04-25T02:30:20;12.77;;;5.10;;
2522;SDS011;1272;53.332;9.860;2023-04-25T02:32:45;24.90;;;5.07;;
2522;SDS011;1272;53.332;9.860;2023-04-25T02:35:11;16.93;;;4.53;;
2522;SDS011;1272;53.332;9.860;2023-04-25T02:37:37;18.27;;;5.37;;
2522;SDS011;1272;53.332;9.860;2023-04-25T02:40:06;20.73;;;5.10;;
2522;SDS011;1272;53.332;9.860;2023-04-25T02:42:32;15.10;;;5.37;;
2522;SDS011;1272;53.332;9.860;2023-04-25T02:44:58;16.97;;;6.10;;
2522;SDS011;1272;53.332;9.860;2023-04-25T02:47:23;16.97;;;5.47;;
2522;SDS011;1272;53.332;9.860;2023-04-25T02:49:49;16.60;;;5.93;;
2522;SDS011;1272;53.332;9.860;2023-04-25T02:52:15;18.40;;;6.07;;
2522;SDS011;1272;53.332;9.860;2023-04-25T02:54:41;20.70;;;5.57;;
2522;SDS011;1272;53.332;9.860;2023-04-25T02:57:06;16.57;;;5.13;;
2522;SDS011;1272;53.332;9.860;2023-04-25T02:59:32;12.73;;;4.60;;
2522;SDS011;1272;53.332;9.860;2023-04-25T03:01:58;20.20;;;5.60;;
2522;SDS011;1272;53.332;9.860;2023-04-25T03:04:24;16.07;;;5.20;;
2522;SDS011;1272;53.332;9.860;2023-04-25T03:06:50;17.60;;;5.47;;
2522;SDS011;1272;53.332;9.860;2023-04-25T03:09:16;22.17;;;5.77;;
2522;SDS011;1272;53.332;9.860;2023-04-25T03:11:43;27.63;;;5.13;;
2522;SDS011;1272;53.332;9.860;2023-04-25T03:14:09;19.20;;;5.23;;
2522;SDS011;1272;53.332;9.860;2023-04-25T03:16:35;19.33;;;5.03;;
2522;SDS011;1272;53.332;9.860;2023-04-25T03:19:01;14.73;;;4.80;;
2522;SDS011;1272;53.332;9.860;2023-04-25T03:21:27;25.50;;;6.17;;
2522;SDS011;1272;53.332;9.860;2023-04-25T03:23:53;15.60;;;4.83;;
2522;SDS011;1272;53.332;9.860;2023-04-25T03:26:19;20.40;;;5.43;;
2522;SDS011;1272;53.332;9.860;2023-04-25T03:28:45;14.00;;;6.67;;
2522;SDS011;1272;53.332;9.860;2023-04-25T03:31:11;27.47;;;5.50;;
2522;SDS011;1272;53.332;9.860;2023-04-25T03:33:36;19.40;;;5.20;;
2522;SDS011;1272;53.332;9.860;2023-04-25T03:36:02;16.10;;;5.23;;
2522;SDS011;1272;53.332;9.860;2023-04-25T03:38:28;20.80;;;6.17;;
2522;SDS011;1272;53.332;9.860;2023-04-25T03:40:54;20.93;;;6.20;;
2522;SDS011;1272;53.332;9.860;2023-04-25T03:43:21;12.70;;;4.50;;
2522;SDS011;1272;53.332;9.860;2023-04-25T03:45:47;10.83;;;4.40;;
2522;SDS011;1272;53.332;9.860;2023-04-25T03:48:12;6.70;;;3.73;;
2522;SDS011;1272;53.332;9.860;2023-04-25T03:50:38;11.03;;;4.27;;
2522;SDS011;1272;53.332;9.860;2023-04-25T03:53:07;14.93;;;4.83;;
2522;SDS011;1272;53.332;9.860;2023-04-25T03:55:32;16.40;;;4.47;;
2522;SDS011;1272;53.332;9.860;2023-04-25T03:57:58;16.27;;;5.07;;
2522;SDS011;1272;53.332;9.860;2023-04-25T04:00:24;18.37;;;5.17;;
2522;SDS011;1272;53.332;9.860;2023-04-25T04:02:50;17.10;;;6.23;;
2522;SDS011;1272;53.332;9.860;2023-04-25T04:05:16;19.77;;;4.67;;
2522;SDS011;1272;53.332;9.860;2023-04-25T04:07:42;13.33;;;4.60;;
2522;SDS011;1272;53.332;9.860;2023-04-25T04:10:08;12.23;;;4.27;;
2522;SDS011;1272;53.332;9.860;2023-04-25T04:12:35;19.33;;;5.30;;
2522;SDS011;1272;53.332;9.860;2023-04-25T04:15:02;12.97;;;5.00;;
2522;SDS011;1272;53.332;9.860;2023-04-25T04:17:29;22.97;;;4.83;;
2522;SDS011;1272;53.332;9.860;2023-04-25T04:19:55;20.97;;;5.70;;
2522;SDS011;1272;53.332;9.860;2023-04-25T04:22:21;13.97;;;5.00;;
2522;SDS011;1272;53.332;9.860;2023-04-25T04:24:47;11.13;;;4.13;;
2522;SDS011;1272;53.332;9.860;2023-04-25T04:27:14;11.57;;;4.73;;
2522;SDS011;1272;53.332;9.860;2023-04-25T04:29:42;11.47;;;4.67;;
2522;SDS011;1272;53.332;9.860;2023-04-25T04:32:08;12.00;;;4.93;;
2522;SDS011;1272;53.332;9.860;2023-04-25T04:34:34;10.87;;;5.10;;
2522;SDS011;1272;53.332;9.860;2023-04-25T04:37:00;17.10;;;5.50;;
2522;SDS011;1272;53.332;9.860;2023-04-25T04:39:26;18.90;;;4.60;;
2522;SDS011;1272;53.332;9.860;2023-04-25T04:41:52;24.60;;;5.70;;
2522;SDS011;1272;53.332;9.860;2023-04-25T04:44:18;16.43;;;4.63;;
2522;SDS011;1272;53.332;9.860;2023-04-25T04:46:44;16.37;;;5.10;;
2522;SDS011;1272;53.332;9.860;2023-04-25T04:49:11;13.07;;;5.30;;
2522;SDS011;1272;53.332;9.860;2023-04-25T04:51:38;22.20;;;5.10;;
2522;SDS011;1272;53.332;9.860;2023-04-25T04:54:05;10.43;;;5.00;;
2522;SDS011;1272;53.332;9.860;2023-04-25T04:56:31;16.03;;;4.50;;
2522;SDS011;1272;53.332;9.860;2023-04-25T04:58:57;19.30;;;4.57;;
2522;SDS011;1272;53.332;9.860;2023-04-25T05:01:23;17.43;;;4.30;;
2522;SDS011;1272;53.332;9.860;2023-04-25T05:03:49;9.40;;;4.53;;
2522;SDS011;1272;53.332;9.860;2023-04-25T05:06:16;14.13;;;4.10;;
2522;SDS011;1272;53.332;9.860;2023-04-25T05:08:43;14.10;;;4.70;;
2522;SDS011;1272;53.332;9.860;2023-04-25T05:11:09;14.03;;;5.00;;
2522;SDS011;1272;53.332;9.860;2023-04-25T05:13:35;9.20;;;3.83;;
2522;SDS011;1272;53.332;9.860;2023-04-25T05:16:00;13.67;;;4.93;;
2522;SDS011;1272;53.332;9.860;2023-04-25T05:18:26;19.70;;;5.03;;
2522;SDS011;1272;53.332;9.860;2023-04-25T05:20:55;13.73;;;4.07;;
2522;SDS011;1272;53.332;9.860;2023-04-25T05:23:20;13.63;;;3.57;;
2522;SDS011;1272;53.332;9.860;2023-04-25T05:25:46;16.97;;;5.20;;
2522;SDS011;1272;53.332;9.860;2023-04-25T05:28:12;10.90;;;4.10;;
2522;SDS011;1272;53.332;9.860;2023-04-25T05:30:38;16.53;;;4.40;;
2522;SDS011;1272;53.332;9.860;2023-04-25T05:33:04;11.97;;;4.40;;
2522;SDS011;1272;53.332;9.860;2023-04-25T05:35:30;15.67;;;4.03;;
2522;SDS011;1272;53.332;9.860;2023-04-25T05:37:56;12.23;;;3.70;;
2522;SDS011;1272;53.332;9.860;2023-04-25T05:40:22;12.10;;;4.10;;
2522;SDS011;1272;53.332;9.860;2023-04-25T05:42:47;12.23;;;3.37;;
2522;SDS011;1272;53.332;9.860;2023-04-25T05:45:13;14.33;;;4.47;;
2522;SDS011;1272;53.332;9.860;2023-04-25T05:47:39;12.93;;;4.67;;
2522;SDS011;1272;53.332;9.860;2023-04-25T05:50:05;13.67;;;3.63;;
2522;SDS011;1272;53.332;9.860;2023-04-25T05:52:31;13.70;;;3.90;;
2522;SDS011;1272;53.332;9.860;2023-04-25T05:54:57;16.33;;;3.57;;
2522;SDS011;1272;53.332;9.860;2023-04-25T05:57:23;14.70;;;3.77;;
2522;SDS011;1272;53.332;9.860;2023-04-25T05:59:50;18.10;;;3.73;;
2522;SDS011;1272;53.332;9.860;2023-04-25T06:02:15;16.53;;;4.50;;
2522;SDS011;1272;53.332;9.860;2023-04-25T06:04:42;18.30;;;4.13;;
2522;SDS011;1272;53.332;9.860;2023-04-25T06:07:08;9.53;;;3.50;;
2522;SDS011;1272;53.332;9.860;2023-04-25T06:09:33;11.70;;;3.70;;
2522;SDS011;1272;53.332;9.860;2023-04-25T06:11:59;14.33;;;4.00;;
2522;SDS011;1272;53.332;9.860;2023-04-25T06:14:26;21.40;;;4.93;;
2522;SDS011;1272;53.332;9.860;2023-04-25T06:16:51;19.30;;;3.80;;
2522;SDS011;1272;53.332;9.860;2023-04-25T06:19:20;13.90;;;4.37;;
2522;SDS011;1272;53.332;9.860;2023-04-25T06:21:45;14.07;;;4.73;;
2522;SDS011;1272;53.332;9.860;2023-04-25T06:24:11;11.90;;;4.53;;
2522;SDS011;1272;53.332;9.860;2023-04-25T06:26:37;16.90;;;4.07;;
2522;SDS011;1272;53.332;9.860;2023-04-25T06:29:02;12.40;;;3.77;;
2522;SDS011;1272;53.332;9.860;2023-04-25T06:31:28;16.67;;;3.57;;
2522;SDS011;1272;53.332;9.860;2023-04-25T06:33:54;12.97;;;4.00;;
2522;SDS011;1272;53.332;9.860;2023-04-25T06:36:22;14.93;;;3.90;;
2522;SDS011;1272;53.332;9.860;2023-04-25T06:38:53;20.47;;;4.50;;
2522;SDS011;1272;53.332;9.860;2023-04-25T06:41:19;14.97;;;4.37;;
2522;SDS011;1272;53.332;9.860;2023-04-25T06:43:45;13.00;;;4.07;;
2522;SDS011;1272;53.332;9.860;2023-04-25T06:46:11;14.40;;;4.30;;
2522;SDS011;1272;53.332;9.860;2023-04-25T06:48:37;9.87;;;4.10;;
2522;SDS011;1272;53.332;9.860;2023-04-25T06:51:03;13.47;;;3.13;;
2522;SDS011;1272;53.332;9.860;2023-04-25T06:53:29;9.20;;;3.40;;
2522;SDS011;1272;53.332;9.860;2023-04-25T06:55:54;10.67;;;3.17;;
2522;SDS011;1272;53.332;9.860;2023-04-25T06:58:20;10.77;;;3.77;;
2522;SDS011;1272;53.332;9.860;2023-04-25T07:00:46;11.20;;;4.10;;
2522;SDS011;1272;53.332;9.860;2023-04-25T07:03:11;15.27;;;3.60;;
2522;SDS011;1272;53.332;9.860;2023-04-25T07:05:37;12.77;;;3.60;;
2522;SDS011;1272;53.332;9.860;2023-04-25T07:08:03;9.77;;;3.50;;
2522;SDS011;1272;53.332;9.860;2023-04-25T07:10:29;9.83;;;3.70;;
2522;SDS011;1272;53.332;9.860;2023-04-25T07:12:54;10.90;;;3.70;;
2522;SDS011;1272;53.332;9.860;2023-04-25T07:15:20;10.87;;;3.63;;
2522;SDS011;1272;53.332;9.860;2023-04-25T07:17:46;10.73;;;3.50;;
2522;SDS011;1272;53.332;9.860;2023-04-25T07:20:11;5.27;;;2.53;;
2522;SDS011;1272;53.332;9.860;2023-04-25T07:22:37;11.63;;;3.63;;
2522;SDS011;1272;53.332;9.860;2023-04-25T07:25:03;5.67;;;3.00;;
2522;SDS011;1272;53.332;9.860;2023-04-25T07:27:29;8.27;;;2.70;;
2522;SDS011;1272;53.332;9.860;2023-04-25T07:29:56;5.07;;;2.73;;
2522;SDS011;1272;53.332;9.860;2023-04-25T07:32:22;8.20;;;2.77;;
2522;SDS011;1272;53.332;9.860;2023-04-25T07:34:47;6.77;;;2.73;;
2522;SDS011;1272;53.332;9.860;2023-04-25T07:37:13;7.63;;;3.43;;
2522;SDS011;1272;53.332;9.860;2023-04-25T07:39:39;11.93;;;2.57;;
2522;SDS011;1272;53.332;9.860;2023-04-25T07:42:05;8.10;;;3.43;;
2522;SDS011;1272;53.332;9.860;2023-04-25T07:44:33;5.57;;;2.30;;
2522;SDS011;1272;53.332;9.860;2023-04-25T07:47:06;5.33;;;2.30;;
2522;SDS011;1272;53.332;9.860;2023-04-25T07:49:33;8.87;;;3.37;;
2522;SDS011;1272;53.332;9.860;2023-04-25T07:52:02;5.07;;;2.60;;
2522;SDS011;1272;53.332;9.860;2023-04-25T07:54:29;5.30;;;2.90;;
2522;SDS011;1272;53.332;9.860;2023-04-25T07:56:55;7.03;;;2.70;;
2522;SDS011;1272;53.332;9.860;2023-04-25T07:59:21;7.73;;;2.83;;
2522;SDS011;1272;53.332;9.860;2023-04-25T08:01:46;12.73;;;2.60;;
2522;SDS011;1272;53.332;9.860;2023-04-25T08:04:12;3.83;;;2.77;;
2522;SDS011;1272;53.332;9.860;2023-04-25T08:06:38;5.10;;;2.30;;
2522;SDS011;1272;53.332;9.860;2023-04-25T08:09:05;7.67;;;2.77;;
2522;SDS011;1272;53.332;9.860;2023-04-25T08:11:31;5.90;;;2.43;;
2522;SDS011;1272;53.332;9.860;2023-04-25T08:13:56;7.93;;;2.40;;
2522;SDS011;1272;53.332;9.860;2023-04-25T08:16:22;12.47;;;2.70;;
2522;SDS011;1272;53.332;9.860;2023-04-25T08:18:48;8.60;;;2.37;;
2522;SDS011;1272;53.332;9.860;2023-04-25T08:21:15;3.37;;;1.87;;
2522;SDS011;1272;53.332;9.860;2023-04-25T08:23:41;7.13;;;2.03;;
2522;SDS011;1272;53.332;9.860;2023-04-25T08:26:06;5.47;;;2.57;;
2522;SDS011;1272;53.332;9.860;2023-04-25T08:28:32;10.53;;;2.80;;
2522;SDS011;1272;53.332;9.860;2023-04-25T08:30:58;10.17;;;2.20;;
2522;SDS011;1272;53.332;9.860;2023-04-25T08:33:24;9.10;;;3.10;;
2522;SDS011;1272;53.332;9.860;2023-04-25T08:35:50;8.27;;;2.30;;
2522;SDS011;1272;53.332;9.860;2023-04-25T08:38:16;10.13;;;2.80;;
2522;SDS011;1272;53.332;9.860;2023-04-25T08:40:42;9.27;;;3.10;;
2522;SDS011;1272;53.332;9.860;2023-04-25T08:43:09;6.70;;;1.97;;
2522;SDS011;1272;53.332;9.860;2023-04-25T08:45:39;6.67;;;1.97;;
2522;SDS011;1272;53.332;9.860;2023-04-25T08:48:10;5.07;;;1.80;;
2522;SDS011;1272;53.332;9.860;2023-04-25T08:50:40;4.40;;;1.87;;
2522;SDS011;1272;53.332;9.860;2023-04-25T08:53:18;4.40;;;1.80;;
2522;SDS011;1272;53.332;9.860;2023-04-25T08:55:50;3.13;;;2.30;;
2522;SDS011;1272;53.332;9.860;2023-04-25T08:58:17;5.30;;;2.33;;
2522;SDS011;1272;53.332;9.860;2023-04-25T09:00:43;9.23;;;1.60;;
2522;SDS011;1272;53.332;9.860;2023-04-25T09:03:11;7.60;;;1.87;;
2522;SDS011;1272;53.332;9.860;2023-04-25T09:05:38;4.33;;;1.37;;
2522;SDS011;1272;53.332;9.860;2023-04-25T09:08:05;6.20;;;2.10;;
2522;SDS011;1272;53.332;9.860;2023-04-25T09:10:32;9.80;;;2.37;;
2522;SDS011;1272;53.332;9.860;2023-04-25T09:13:13;14.87;;;1.90;;
2522;SDS011;1272;53.332;9.860;2023-04-25T09:15:47;13.73;;;2.23;;
2522;SDS011;1272;53.332;9.860;2023-04-25T09:18:14;3.67;;;1.80;;
2522;SDS011;1272;53.332;9.860;2023-04-25T09:20:48;6.93;;;1.90;;
2522;SDS011;1272;53.332;9.860;2023-04-25T09:23:14;13.43;;;2.33;;
2522;SDS011;1272;53.332;9.860;2023-04-25T09:25:40;5.90;;;2.00;;
2522;SDS011;1272;53.332;9.860;2023-04-25T09:28:08;5.00;;;2.27;;
2522;SDS011;1272;53.332;9.860;2023-04-25T09:30:34;12.83;;;2.83;;
2522;SDS011;1272;53.332;9.860;2023-04-25T09:33:04;7.97;;;1.70;;
2522;SDS011;1272;53.332;9.860;2023-04-25T09:35:40;2.13;;;1.27;;
2522;SDS011;1272;53.332;9.860;2023-04-25T09:38:16;4.10;;;1.43;;
2522;SDS011;1272;53.332;9.860;2023-04-25T09:40:44;6.13;;;1.70;;
2522;SDS011;1272;53.332;9.860;2023-04-25T09:43:21;5.40;;;2.20;;
2522;SDS011;1272;53.332;9.860;2023-04-25T09:45:47;3.27;;;2.20;;
2522;SDS011;1272;53.332;9.860;2023-04-25T09:48:21;5.93;;;1.53;;
2522;SDS011;1272;53.332;9.860;2023-04-25T09:51:09;3.60;;;1.70;;
2522;SDS011;1272;53.332;9.860;2023-04-25T09:53:39;3.70;;;1.50;;
2522;SDS011;1272;53.332;9.860;2023-04-25T09:56:07;7.53;;;2.17;;
2522;SDS011;1272;53.332;9.860;2023-04-25T09:58:34;4.20;;;1.90;;
2522;SDS011;1272;53.332;9.860;2023-04-25T10:01:02;5.57;;;1.90;;
2522;SDS011;1272;53.332;9.860;2023-04-25T10:03:30;4.90;;;1.87;;
2522;SDS011;1272;53.332;9.860;2023-04-25T10:06:01;5.37;;;1.87;;
2522;SDS011;1272;53.332;9.860;2023-04-25T10:08:33;6.93;;;1.97;;
2522;SDS011;1272;53.332;9.860;2023-04-25T10:11:01;4.27;;;1.63;;
2522;SDS011;1272;53.332;9.860;2023-04-25T10:13:29;3.30;;;1.37;;
2522;SDS011;1272;53.332;9.860;2023-04-25T10:15:57;4.60;;;2.40;;
2522;SDS011;1272;53.332;9.860;2023-04-25T10:18:24;8.10;;;2.73;;
2522;SDS011;1272;53.332;9.860;2023-04-25T10:20:51;6.30;;;2.30;;
2522;SDS011;1272;53.332;9.860;2023-04-25T10:23:24;5.97;;;2.20;;
2522;SDS011;1272;53.332;9.860;2023-04-25T10:25:51;10.47;;;2.10;;
2522;SDS011;1272;53.332;9.860;2023-04-25T10:28:18;5.23;;;2.17;;
2522;SDS011;1272;53.332;9.860;2023-04-25T10:31:07;7.33;;;1.80;;
2522;SDS011;1272;53.332;9.860;2023-04-25T10:33:38;11.70;;;2.53;;
2522;SDS011;1272;53.332;9.860;2023-04-25T10:36:31;12.00;;;2.13;;
2522;SDS011;1272;53.332;9.860;2023-04-25T10:38:56;5.60;;;2.23;;
2522;SDS011;1272;53.332;9.860;2023-04-25T10:41:31;6.97;;;2.23;;
2522;SDS011;1272;53.332;9.860;2023-04-25T10:44:10;9.20;;;2.63;;
2522;SDS011;1272;53.332;9.860;2023-04-25T10:46:35;3.53;;;2.10;;
2522;SDS011;1272;53.332;9.860;2023-04-25T10:49:02;4.00;;;1.40;;
2522;SDS011;1272;53.332;9.860;2023-04-25T10:51:28;9.23;;;2.20;;
2522;SDS011;1272;53.332;9.860;2023-04-25T10:56:27;5.07;;;1.67;;
2522;SDS011;1272;53.332;9.860;2023-04-25T10:59:08;4.80;;;1.20;;
2522;SDS011;1272;53.332;9.860;2023-04-25T11:01:42;3.20;;;1.80;;
2522;SDS011;1272;53.332;9.860;2023-04-25T11:04:25;9.30;;;1.80;;
2522;SDS011;1272;53.332;9.860;2023-04-25T11:09:37;7.47;;;2.73;;
2522;SDS011;1272;53.332;9.860;2023-04-25T11:12:06;6.17;;;1.90;;
2522;SDS011;1272;53.332;9.860;2023-04-25T11:14:33;6.03;;;3.00;;
2522;SDS011;1272;53.332;9.860;2023-04-25T11:16:59;5.53;;;1.80;;
2522;SDS011;1272;53.332;9.860;2023-04-25T11:19:27;3.90;;;1.63;;
2522;SDS011;1272;53.332;9.860;2023-04-25T11:22:00;2.70;;;1.57;;
2522;SDS011;1272;53.332;9.860;2023-04-25T11:24:27;3.57;;;1.60;;
2522;SDS011;1272;53.332;9.860;2023-04-25T11:27:00;3.53;;;1.50;;
2522;SDS011;1272;53.332;9.860;2023-04-25T11:29:31;5.13;;;1.93;;
2522;SDS011;1272;53.332;9.860;2023-04-25T11:31:58;6.10;;;2.20;;
2522;SDS011;1272;53.332;9.860;2023-04-25T11:34:27;10.93;;;1.97;;
2522;SDS011;1272;53.332;9.860;2023-04-25T11:36:57;7.77;;;2.43;;
2522;SDS011;1272;53.332;9.860;2023-04-25T11:39:24;4.73;;;1.60;;
2522;SDS011;1272;53.332;9.860;2023-04-25T11:41:51;5.40;;;1.90;;
2522;SDS011;1272;53.332;9.860;2023-04-25T11:44:18;7.10;;;2.20;;
2522;SDS011;1272;53.332;9.860;2023-04-25T11:46:44;2.63;;;1.83;;
2522;SDS011;1272;53.332;9.860;2023-04-25T11:49:11;3.00;;;1.43;;
2522;SDS011;1272;53.332;9.860;2023-04-25T11:51:40;4.87;;;2.63;;
2522;SDS011;1272;53.332;9.860;2023-04-25T11:54:08;3.77;;;1.87;;
2522;SDS011;1272;53.332;9.860;2023-04-25T11:56:34;2.80;;;1.50;;
2522;SDS011;1272;53.332;9.860;2023-04-25T11:59:00;4.00;;;1.40;;
2522;SDS011;1272;53.332;9.860;2023-04-25T12:01:31;2.20;;;1.50;;
2522;SDS011;1272;53.332;9.860;2023-04-25T12:03:58;5.50;;;1.63;;
2522;SDS011;1272;53.332;9.860;2023-04-25T12:06:38;3.93;;;1.90;;
2522;SDS011;1272;53.332;9.860;2023-04-25T12:09:07;6.27;;;1.37;;
2522;SDS011;1272;53.332;9.860;2023-04-25T12:11:44;5.50;;;1.40;;
2522;SDS011;1272;53.332;9.860;2023-04-25T12:14:23;3.73;;;1.70;;
2522;SDS011;1272;53.332;9.860;2023-04-25T12:16:57;2.87;;;1.77;;
2522;SDS011;1272;53.332;9.860;2023-04-25T12:19:24;4.97;;;1.43;;
2522;SDS011;1272;53.332;9.860;2023-04-25T12:21:51;3.37;;;1.80;;
2522;SDS011;1272;53.332;9.860;2023-04-25T12:24:18;4.20;;;1.63;;
2522;SDS011;1272;53.332;9.860;2023-04-25T12:29:30;5.70;;;2.17;;
2522;SDS011;1272;53.332;9.860;2023-04-25T12:31:56;4.00;;;1.60;;
2522;SDS011;1272;53.332;9.860;2023-04-25T12:34:23;4.43;;;1.40;;
2522;SDS011;1272;53.332;9.860;2023-04-25T12:36:49;2.77;;;1.43;;
2522;SDS011;1272;53.332;9.860;2023-04-25T12:39:16;6.13;;;2.30;;
2522;SDS011;1272;53.332;9.860;2023-04-25T12:41:43;4.27;;;2.17;;
2522;SDS011;1272;53.332;9.860;2023-04-25T12:44:10;7.40;;;2.60;;
2522;SDS011;1272;53.332;9.860;2023-04-25T12:46:36;2.50;;;1.30;;
2522;SDS011;1272;53.332;9.860;2023-04-25T12:49:02;3.80;;;1.60;;
2522;SDS011;1272;53.332;9.860;2023-04-25T12:51:28;3.07;;;1.57;;
2522;SDS011;1272;53.332;9.860;2023-04-25T12:53:54;1.93;;;1.47;;
2522;SDS011;1272;53.332;9.860;2023-04-25T12:56:20;6.93;;;3.03;;
2522;SDS011;1272;53.332;9.860;2023-04-25T12:58:46;1.50;;;1.17;;
2522;SDS011;1272;53.332;9.860;2023-04-25T13:01:13;2.93;;;1.40;;
2522;SDS011;1272;53.332;9.860;2023-04-25T13:03:39;2.80;;;1.40;;
2522;SDS011;1272;53.332;9.860;2023-04-25T13:06:06;2.63;;;1.47;;
2522;SDS011;1272;53.332;9.860;2023-04-25T13:08:32;3.17;;;1.43;;
2522;SDS011;1272;53.332;9.860;2023-04-25T13:10:58;4.30;;;1.57;;
2522;SDS011;1272;53.332;9.860;2023-04-25T13:13:23;3.97;;;1.30;;
2522;SDS011;1272;53.332;9.860;2023-04-25T13:15:49;3.80;;;1.70;;
2522;SDS011;1272;53.332;9.860;2023-04-25T13:18:15;3.33;;;1.70;;
2522;SDS011;1272;53.332;9.860;2023-04-25T13:20:41;3.17;;;1.37;;
2522;SDS011;1272;53.332;9.860;2023-04-25T13:23:06;2.50;;;1.30;;
2522;SDS011;1272;53.332;9.860;2023-04-25T13:25:32;5.67;;;2.60;;
2522;SDS011;1272;53.332;9.860;2023-04-25T13:27:58;4.57;;;1.50;;
2522;SDS011;1272;53.332;9.860;2023-04-25T13:30:23;2.83;;;1.50;;
2522;SDS011;1272;53.332;9.860;2023-04-25T13:32:49;5.70;;;1.93;;
2522;SDS011;1272;53.332;9.860;2023-04-25T13:35:16;5.60;;;1.77;;
2522;SDS011;1272;53.332;9.860;2023-04-25T13:37:42;4.90;;;1.73;;
2522;SDS011;1272;53.332;9.860;2023-04-25T13:40:08;3.30;;;1.60;;
2522;SDS011;1272;53.332;9.860;2023-04-25T13:42:36;10.73;;;2.30;;
2522;SDS011;1272;53.332;9.860;2023-04-25T13:45:03;4.70;;;1.70;;
2522;SDS011;1272;53.332;9.860;2023-04-25T13:47:29;7.00;;;2.10;;
2522;SDS011;1272;53.332;9.860;2023-04-25T13:49:55;3.10;;;1.47;;
2522;SDS011;1272;53.332;9.860;2023-04-25T13:52:22;3.97;;;1.60;;
2522;SDS011;1272;53.332;9.860;2023-04-25T13:54:49;4.10;;;2.37;;
2522;SDS011;1272;53.332;9.860;2023-04-25T13:57:15;6.60;;;1.80;;
2522;SDS011;1272;53.332;9.860;2023-04-25T13:59:42;4.73;;;2.00;;
2522;SDS011;1272;53.332;9.860;2023-04-25T14:02:08;3.53;;;1.40;;
2522;SDS011;1272;53.332;9.860;2023-04-25T14:04:33;3.63;;;2.17;;
2522;SDS011;1272;53.332;9.860;2023-04-25T14:06:59;2.10;;;1.90;;
2522;SDS011;1272;53.332;9.860;2023-04-25T14:09:27;1.53;;;1.13;;
2522;SDS011;1272;53.332;9.860;2023-04-25T14:11:53;4.57;;;1.43;;
2522;SDS011;1272;53.332;9.860;2023-04-25T14:14:19;2.97;;;1.60;;
2522;SDS011;1272;53.332;9.860;2023-04-25T14:16:46;2.43;;;1.40;;
2522;SDS011;1272;53.332;9.860;2023-04-25T14:19:13;4.33;;;1.83;;
2522;SDS011;1272;53.332;9.860;2023-04-25T14:21:39;2.20;;;1.57;;
2522;SDS011;1272;53.332;9.860;2023-04-25T14:24:05;6.13;;;2.00;;
2522;SDS011;1272;53.332;9.860;2023-04-25T14:26:33;2.30;;;1.40;;
2522;SDS011;1272;53.332;9.860;2023-04-25T14:28:59;7.30;;;1.93;;
2522;SDS011;1272;53.332;9.860;2023-04-25T14:31:25;5.10;;;2.03;;
2522;SDS011;1272;53.332;9.860;2023-04-25T14:33:51;2.47;;;1.30;;
2522;SDS011;1272;53.332;9.860;2023-04-25T14:36:16;3.93;;;1.50;;
2522;SDS011;1272;53.332;9.860;2023-04-25T14:38:42;6.30;;;1.40;;
2522;SDS011;1272;53.332;9.860;2023-04-25T14:41:08;3.80;;;1.80;;
2522;SDS011;1272;53.332;9.860;2023-04-25T14:43:34;4.53;;;1.40;;
2522;SDS011;1272;53.332;9.860;2023-04-25T14:46:01;1.33;;;1.23;;
2522;SDS011;1272;53.332;9.860;2023-04-25T14:48:27;3.73;;;1.50;;
2522;SDS011;1272;53.332;9.860;2023-04-25T14:50:54;2.90;;;1.60;;
2522;SDS011;1272;53.332;9.860;2023-04-25T14:53:22;4.03;;;1.60;;
2522;SDS011;1272;53.332;9.860;2023-04-25T14:55:48;6.30;;;1.60;;
2522;SDS011;1272;53.332;9.860;2023-04-25T14:58:14;2.27;;;2.03;;
2522;SDS011;1272;53.332;9.860;2023-04-25T15:00:40;5.17;;;1.60;;
2522;SDS011;1272;53.332;9.860;2023-04-25T15:03:05;2.30;;;1.77;;
2522;SDS011;1272;53.332;9.860;2023-04-25T15:05:32;6.13;;;1.50;;
2522;SDS011;1272;53.332;9.860;2023-04-25T15:07:59;2.50;;;1.50;;
2522;SDS011;1272;53.332;9.860;2023-04-25T15:10:26;4.60;;;1.50;;
2522;SDS011;1272;53.332;9.860;2023-04-25T15:12:53;2.20;;;1.50;;
2522;SDS011;1272;53.332;9.860;2023-04-25T15:15:20;3.70;;;1.90;;
2522;SDS011;1272;53.332;9.860;2023-04-25T15:17:47;2.03;;;1.60;;
2522;SDS011;1272;53.332;9.860;2023-04-25T15:20:13;11.23;;;1.73;;